Eagle County Regional Airport
KEGE : now visible

Airfield :











YOU CAN JOIN US ON...

 
LOGIN :

Register | Disclaimer

   EN    FR    IT 

 









Legend :    VFR   Marginal VFR   IFR   Intensive IFR   Very Intensive IFR
Visi :
Ceiling :
>= 8 km
>= 3000ft
5 to 8 km
1000 to 3000 ft
1500m to 5 km
500 to 1000 ft
800 to 1500m
200 to 500 ft
< 800m
< 200 ft
Symbols :   Thunderstorms  Fog  Heavy snow  Heavy precipitations  Wind > 20 kt






- Airport Elevation : 6548 ft
- IATA code : EGE


KEGE - Eagle County Regional

CURRENT METAR :
  • 181056Z AUTO 09003KT 10SM CLR M18/M21 A3042 RMK AO2 SLP390 T11831206 FZRANO PNO $

EXPIRED METARs :
  • 180956Z AUTO 00000KT 10SM CLR M17/M18 A3040 RMK AO2 SLP386 T11671183 FZRANO PNO $
  • 180856Z AUTO 10007KT 10SM CLR M16/M18 A3038 RMK AO2 SLP366 6//// T11561178 53012 FZRANO PNO $

TAF KEGE
Valid from the 18 at 06:00 until the 19 at 06:00 UTC


180520Z 1806/1906 09006KT P6SM SKC
FM180800 VRB04KT P6SM FEW120 SCT200
FM181400 VRB03KT P6SM SCT120 BKN150
FM182000 VRB04KT P6SM FEW060 SCT150
FM182200 VRB04KT P6SM FEW045 SCT200
FM190000 VRB03KT P6SM FEW080 SCT250



MET'MAP, your aeronautical weather chart ! - Copyright ORBIFLY December 2007 - Disclaimer

ORBIFLY MET'MAP TEAM :

Programming & Development : Alexandra Zaïnal
Concept & original design : Baudouin d'Aumeries
Assistance for programming : Marc-Olivier Méhu
Technical & hardware support : Manuel Goepfert

Contact : metmap@orbifly.com




SOURCES & CREDITS :

   NOAA       Earth
Advisory